Time;durP1;ratioP1;P1;durP2;ratioP2;P2;SDS_P1;SDS_P2;PMS_P1;PMS_P2;Temp;Humidity;BMP_temperature;BMP_pressure;BME280_temperature;BME280_humidity;BME280_pressure;Samples;Min_cycle;Max_cycle;Signal;HPM_P1;HPM_P2
2023/06/09 00:01:13;;;;;;;7.32;5.90;;;;;;;20.18;46.42;100910.97;7395093;19;20497;-69
2023/06/09 00:03:42;;;;;;;8.75;5.63;;;;;;;20.20;46.47;100899.38;7393185;19;20031;-69
2023/06/09 00:06:26;;;;;;;7.35;5.45;;;;;;;20.19;46.26;100909.16;7391667;19;20078;-69
2023/06/09 00:08:57;;;;;;;7.80;6.10;;;;;;;20.14;46.44;100900.59;7393451;19;20007;-69
2023/06/09 00:11:26;;;;;;;6.68;4.68;;;;;;;20.13;46.71;100909.50;7394089;19;20019;-69
2023/06/09 00:13:55;;;;;;;9.68;5.05;;;;;;;20.10;46.32;100909.72;7394218;19;20485;-69
2023/06/09 00:16:24;;;;;;;7.07;5.22;;;;;;;20.08;46.40;100914.25;7392651;19;20505;-69
2023/06/09 00:18:53;;;;;;;7.20;5.32;;;;;;;20.04;46.40;100899.41;7393169;19;20018;-69
2023/06/09 00:21:25;;;;;;;7.63;4.45;;;;;;;19.99;46.37;100899.69;7392922;19;20086;-69
2023/06/09 00:23:55;;;;;;;9.60;4.78;;;;;;;19.96;46.63;100898.06;7394670;19;20022;-69
2023/06/09 00:26:25;;;;;;;5.68;4.40;;;;;;;19.94;46.37;100897.31;7392981;19;20046;-69
2023/06/09 00:28:53;;;;;;;8.15;5.18;;;;;;;19.90;46.44;100886.91;7392365;19;20418;-69
2023/06/09 00:31:22;;;;;;;6.22;5.63;;;;;;;19.88;46.34;100896.78;7392391;19;20024;-69
2023/06/09 00:33:50;;;;;;;7.38;4.82;;;;;;;19.83;46.48;100892.59;7394092;19;20031;-69
2023/06/09 00:36:19;;;;;;;6.40;4.53;;;;;;;19.81;46.66;100898.94;7392085;19;20600;-68
2023/06/09 00:38:51;;;;;;;11.45;5.47;;;;;;;19.79;46.61;100896.38;7394075;19;20018;-68
2023/06/09 00:41:20;;;;;;;9.20;4.88;;;;;;;19.78;46.74;100894.63;7392851;19;20023;-69
2023/06/09 00:43:50;;;;;;;8.93;4.72;;;;;;;19.78;46.48;100899.13;7391872;19;20422;-69
2023/06/09 00:46:19;;;;;;;8.20;4.80;;;;;;;19.74;46.48;100893.13;7392107;19;20097;-69
2023/06/09 00:48:48;;;;;;;5.25;4.30;;;;;;;19.73;46.75;100894.06;7391993;19;20013;-69
2023/06/09 00:51:16;;;;;;;6.28;4.40;;;;;;;19.72;46.61;100900.31;7394033;19;20186;-69
2023/06/09 00:53:45;;;;;;;6.45;4.32;;;;;;;19.70;46.78;100896.88;7391687;19;20026;-69
2023/06/09 00:56:18;;;;;;;10.90;5.28;;;;;;;19.67;46.30;100892.59;7391759;19;20032;-69
2023/06/09 00:58:46;;;;;;;6.13;4.43;;;;;;;19.64;46.29;100894.59;7392176;19;20015;-69
2023/06/09 01:01:15;;;;;;;5.30;4.53;;;;;;;19.64;46.39;100892.78;7391514;19;20027;-69
2023/06/09 01:03:43;;;;;;;6.57;4.40;;;;;;;19.61;46.33;100892.94;7391517;19;20090;-69
2023/06/09 01:06:26;;;;;;;8.07;4.70;;;;;;;19.58;46.07;100895.78;7391446;19;20050;-69
2023/06/09 01:09:11;;;;;;;5.22;4.53;;;;;;;19.53;46.48;100888.06;7392283;19;20010;-69
2023/06/09 01:11:51;;;;;;;11.18;5.65;;;;;;;19.51;46.20;100891.75;7398155;19;20023;-69
2023/06/09 01:14:26;;;;;;;6.82;4.80;;;;;;;19.46;46.07;100889.38;7393098;19;20078;-66
2023/06/09 01:17:00;;;;;;;6.75;4.63;;;;;;;19.43;46.43;100886.03;7397440;19;20477;-66
2023/06/09 01:19:34;;;;;;;6.50;4.53;;;;;;;19.40;46.22;100884.41;7400587;19;20019;-66
2023/06/09 01:22:09;;;;;;;5.88;4.30;;;;;;;19.35;46.56;100882.00;7399999;19;20011;-67
2023/06/09 01:24:49;;;;;;;6.78;5.15;;;;;;;19.33;46.33;100880.38;7397966;19;20014;-67
2023/06/09 01:27:23;;;;;;;7.75;5.10;;;;;;;19.32;46.89;100882.19;7399841;19;20506;-67
2023/06/09 01:29:53;;;;;;;6.13;4.85;;;;;;;19.28;46.62;100883.28;7399757;19;20038;-67
2023/06/09 01:32:23;;;;;;;7.93;4.95;;;;;;;19.27;46.41;100884.25;7397502;19;20015;-67
2023/06/09 01:34:53;;;;;;;7.00;4.80;;;;;;;19.26;46.90;100887.84;7397784;19;20108;-66
2023/06/09 01:37:22;;;;;;;5.10;4.28;;;;;;;19.23;47.21;100885.34;7399413;19;20627;-67
2023/06/09 01:39:51;;;;;;;5.68;4.88;;;;;;;19.20;47.17;100885.53;7399747;19;20034;-66
2023/06/09 01:42:23;;;;;;;8.82;4.78;;;;;;;19.17;46.89;100891.00;7399931;19;20021;-67
2023/06/09 01:44:51;;;;;;;7.72;4.20;;;;;;;19.15;47.38;100884.91;7397077;19;20028;-67
2023/06/09 01:47:21;;;;;;;7.13;4.60;;;;;;;19.11;47.23;100889.53;7399583;19;20027;-67
2023/06/09 01:49:57;;;;;;;5.95;4.85;;;;;;;19.09;47.01;100885.25;7396984;19;20023;-67
2023/06/09 01:52:34;;;;;;;7.18;4.95;;;;;;;19.06;47.28;100888.94;7398928;19;20014;-67
2023/06/09 01:55:05;;;;;;;7.82;4.60;;;;;;;19.05;47.51;100882.75;7399513;19;20022;-67
2023/06/09 01:57:46;;;;;;;7.10;4.68;;;;;;;19.07;47.20;100889.78;7396498;19;20078;-67
2023/06/09 02:00:16;;;;;;;5.97;4.55;;;;;;;19.04;47.03;100882.84;7400178;19;20031;-68
2023/06/09 02:02:48;;;;;;;6.50;5.05;;;;;;;19.03;47.24;100882.00;7401485;19;20027;-68
2023/06/09 02:05:20;;;;;;;6.15;5.00;;;;;;;19.01;47.35;100883.88;7400055;19;20077;-68
2023/06/09 02:07:49;;;;;;;6.05;4.88;;;;;;;18.97;47.41;100878.78;7399721;19;20014;-67
2023/06/09 02:10:18;;;;;;;7.68;5.00;;;;;;;18.96;47.74;100885.94;7398271;19;20022;-67
2023/06/09 02:12:50;;;;;;;6.43;4.80;;;;;;;18.93;47.23;100888.78;7397503;19;20383;-67
2023/06/09 02:15:19;;;;;;;7.47;5.05;;;;;;;18.91;47.55;100882.66;7400028;19;20509;-67
2023/06/09 02:17:47;;;;;;;5.38;4.88;;;;;;;18.88;47.85;100882.81;7400642;19;20034;-67
2023/06/09 02:20:16;;;;;;;6.45;4.55;;;;;;;18.85;47.43;100885.63;7397357;19;20018;-68
2023/06/09 02:22:44;;;;;;;7.88;5.25;;;;;;;18.81;47.71;100881.41;7397919;19;20015;-68
2023/06/09 02:25:13;;;;;;;6.32;5.10;;;;;;;18.78;47.68;100879.78;7397155;19;20505;-67
2023/06/09 02:27:41;;;;;;;6.85;5.00;;;;;;;18.74;47.73;100880.91;7397678;19;20019;-67
2023/06/09 02:30:13;;;;;;;7.90;4.80;;;;;;;18.70;48.10;100874.88;7397908;19;20022;-68
2023/06/09 02:32:42;;;;;;;6.20;5.47;;;;;;;18.68;47.81;100883.88;7398169;19;20022;-68
2023/06/09 02:35:10;;;;;;;7.47;5.13;;;;;;;18.65;48.14;100892.88;7397895;19;20038;-67
2023/06/09 02:37:41;;;;;;;8.45;4.80;;;;;;;18.63;48.17;100894.75;7397140;19;20447;-68
2023/06/09 02:40:11;;;;;;;8.13;4.32;;;;;;;18.59;47.84;100893.22;7397576;19;20039;-68
2023/06/09 02:42:39;;;;;;;6.28;4.88;;;;;;;18.58;47.81;100885.28;7396957;19;20018;-67
2023/06/09 02:45:12;;;;;;;7.85;5.68;;;;;;;18.54;47.81;100890.78;7397179;19;20018;-67
2023/06/09 02:47:40;;;;;;;7.47;5.40;;;;;;;18.54;47.92;100889.94;7397902;19;20018;-68
2023/06/09 02:50:09;;;;;;;7.18;4.95;;;;;;;18.53;48.08;100888.22;7397104;19;20423;-69
2023/06/09 02:52:39;;;;;;;8.20;5.32;;;;;;;18.49;48.26;100887.50;7395361;19;20026;-68
2023/06/09 02:55:11;;;;;;;6.75;5.07;;;;;;;18.45;48.54;100882.44;7395139;19;20432;-67
2023/06/09 02:57:39;;;;;;;12.70;5.30;;;;;;;18.42;48.37;100887.91;7396846;19;20557;-68
2023/06/09 03:00:12;;;;;;;7.57;5.20;;;;;;;18.38;48.59;100888.06;7396540;19;20018;-68
2023/06/09 03:02:41;;;;;;;8.43;5.60;;;;;;;18.34;48.58;100885.66;7396842;19;20018;-67
2023/06/09 03:05:10;;;;;;;7.47;5.90;;;;;;;18.31;48.81;100884.03;7394477;19;20102;-68
2023/06/09 03:07:39;;;;;;;8.68;5.45;;;;;;;18.26;49.05;100886.06;7396446;19;20014;-65
2023/06/09 03:10:09;;;;;;;9.48;5.38;;;;;;;18.24;49.16;100888.78;7396207;19;20018;-67
2023/06/09 03:12:37;;;;;;;8.05;5.28;;;;;;;18.23;48.76;100887.06;7394313;19;20078;-67
2023/06/09 03:15:07;;;;;;;6.00;5.18;;;;;;;18.21;48.58;100888.94;7394384;19;20010;-66
2023/06/09 03:17:41;;;;;;;6.70;5.95;;;;;;;18.18;48.95;100891.75;7394518;19;20010;-67
2023/06/09 03:20:11;;;;;;;8.45;5.28;;;;;;;18.18;49.11;100881.13;7396773;19;20014;-67
2023/06/09 03:22:40;;;;;;;10.57;6.05;;;;;;;18.17;48.90;100894.50;7394905;19;20029;-68
2023/06/09 03:25:10;;;;;;;7.25;5.78;;;;;;;18.14;48.82;100894.66;7395413;19;20423;-67
2023/06/09 03:27:38;;;;;;;7.28;5.53;;;;;;;18.13;48.69;100892.94;7395894;19;20018;-67
2023/06/09 03:30:08;;;;;;;7.95;5.47;;;;;;;18.12;49.07;100892.09;7395584;19;20090;-67
2023/06/09 03:32:39;;;;;;;7.97;5.47;;;;;;;18.14;49.07;100892.00;7395510;19;20022;-66
2023/06/09 03:35:08;;;;;;;8.35;5.72;;;;;;;18.15;48.68;100891.06;7395608;19;20027;-67
2023/06/09 03:37:37;;;;;;;7.85;5.55;;;;;;;18.15;49.06;100888.41;7393408;19;20019;-67
2023/06/09 03:40:07;;;;;;;7.85;5.53;;;;;;;18.13;48.81;100891.13;7394946;19;20010;-67
2023/06/09 03:42:35;;;;;;;6.50;5.43;;;;;;;18.11;48.67;100897.47;7393134;19;20014;-67
2023/06/09 03:45:04;;;;;;;9.15;5.88;;;;;;;18.10;49.13;100903.69;7394534;19;20077;-67
2023/06/09 03:47:32;;;;;;;7.07;5.57;;;;;;;18.08;48.67;100898.47;7394645;19;20035;-67
2023/06/09 03:50:03;;;;;;;9.65;5.80;;;;;;;18.05;48.71;100902.16;7395245;19;20035;-67
2023/06/09 03:52:32;;;;;;;6.45;5.68;;;;;;;18.04;49.19;100897.75;7395259;19;20094;-67
2023/06/09 03:55:01;;;;;;;8.65;5.95;;;;;;;18.03;48.79;100896.06;7393292;19;20011;-67
2023/06/09 03:57:30;;;;;;;8.02;6.38;;;;;;;18.01;49.09;100903.25;7393488;19;20078;-69
2023/06/09 03:59:58;;;;;;;7.43;5.57;;;;;;;18.01;49.08;100899.75;7393422;19;20022;-67
2023/06/09 04:02:26;;;;;;;7.13;5.25;;;;;;;18.00;49.39;100900.66;7394496;19;20497;-67
2023/06/09 04:04:55;;;;;;;7.97;5.82;;;;;;;17.98;49.13;100900.72;7392959;19;20082;-67
2023/06/09 04:07:29;;;;;;;8.65;6.03;;;;;;;17.99;49.51;100905.09;7393789;19;20086;-67
2023/06/09 04:09:58;;;;;;;7.25;5.70;;;;;;;18.01;49.34;100905.91;7394440;19;20015;-67
2023/06/09 04:12:26;;;;;;;8.38;5.93;;;;;;;18.04;49.45;100910.19;7394752;19;20022;-66
2023/06/09 04:14:55;;;;;;;8.65;6.78;;;;;;;18.07;49.61;100910.91;7392595;19;20025;-67
2023/06/09 04:17:24;;;;;;;8.75;6.18;;;;;;;18.12;49.54;100907.16;7394770;19;20019;-68
2023/06/09 04:19:54;;;;;;;7.93;6.63;;;;;;;18.18;49.38;100912.16;7394179;19;20156;-67
2023/06/09 04:22:22;;;;;;;10.85;6.38;;;;;;;18.21;49.44;100906.66;7392265;19;20074;-67
2023/06/09 04:24:53;;;;;;;9.60;6.18;;;;;;;18.26;49.48;100899.34;7392168;19;20518;-67
2023/06/09 04:27:23;;;;;;;8.30;6.10;;;;;;;18.30;49.40;100900.91;7391755;19;20019;-67
2023/06/09 04:29:52;;;;;;;7.70;5.95;;;;;;;18.34;49.43;100898.94;7391835;19;20014;-65
2023/06/09 04:32:21;;;;;;;10.18;6.13;;;;;;;18.36;49.95;100894.41;7391833;19;20481;-66
2023/06/09 04:34:49;;;;;;;8.48;6.22;;;;;;;18.36;49.65;100900.59;7391975;19;20023;-66
2023/06/09 04:37:18;;;;;;;9.15;6.35;;;;;;;18.37;49.72;100904.09;7393059;19;20415;-66
2023/06/09 04:39:48;;;;;;;11.90;6.20;;;;;;;18.39;49.48;100904.88;7392745;19;20374;-66
2023/06/09 04:42:20;;;;;;;8.43;6.28;;;;;;;18.40;49.20;100909.25;7390943;19;20031;-67
2023/06/09 04:44:50;;;;;;;8.23;6.38;;;;;;;18.44;49.19;100907.28;7394929;19;20018;-67
2023/06/09 04:47:20;;;;;;;7.30;6.40;;;;;;;18.45;49.48;100901.03;7396958;19;20348;-68
2023/06/09 04:49:49;;;;;;;7.97;5.85;;;;;;;18.49;49.24;100902.59;7400586;19;20038;-67
2023/06/09 04:52:20;;;;;;;7.90;6.10;;;;;;;18.52;49.19;100910.41;7400678;19;20091;-66
2023/06/09 04:54:49;;;;;;;8.35;6.35;;;;;;;18.58;49.28;100902.13;7397476;19;20423;-67
2023/06/09 04:57:20;;;;;;;12.13;7.07;;;;;;;18.61;49.29;100909.91;7401376;19;20010;-67
2023/06/09 04:59:53;;;;;;;7.68;6.32;;;;;;;18.65;49.29;100910.59;7400255;19;20086;-67
2023/06/09 05:02:22;;;;;;;9.40;7.40;;;;;;;18.67;49.79;100906.94;7399612;19;20030;-67
2023/06/09 05:04:50;;;;;;;12.25;8.15;;;;;;;18.70;49.49;100913.88;7396554;19;20018;-67
2023/06/09 05:07:19;;;;;;;10.55;7.50;;;;;;;18.75;49.70;100903.00;7396656;19;20018;-66
2023/06/09 05:09:47;;;;;;;9.50;7.30;;;;;;;18.78;49.61;100903.72;7399826;19;20143;-66
2023/06/09 05:12:16;;;;;;;9.73;7.60;;;;;;;18.82;49.86;100909.72;7396783;19;20082;-67
2023/06/09 05:14:47;;;;;;;9.52;6.95;;;;;;;18.85;49.56;100905.06;7395947;19;20073;-67
2023/06/09 05:17:15;;;;;;;10.60;6.57;;;;;;;18.90;49.91;100902.22;7396674;19;20074;-67
2023/06/09 05:19:44;;;;;;;7.63;6.45;;;;;;;18.95;49.89;100915.25;7397477;19;20018;-67
2023/06/09 05:22:12;;;;;;;10.18;7.05;;;;;;;18.99;49.86;100911.47;7398390;19;20447;-67
2023/06/09 05:24:41;;;;;;;10.20;6.75;;;;;;;18.97;49.51;100908.91;7396448;19;20074;-66
2023/06/09 05:27:10;;;;;;;8.52;6.72;;;;;;;18.95;50.08;100910.78;7397563;19;20478;-67
2023/06/09 05:29:39;;;;;;;10.02;6.43;;;;;;;18.96;49.88;100912.50;7398774;19;20010;-67
2023/06/09 05:32:11;;;;;;;8.80;6.60;;;;;;;18.96;49.82;100912.50;7398879;19;20031;-68
2023/06/09 05:34:39;;;;;;;12.05;7.10;;;;;;;18.97;49.95;100908.91;7396992;19;20031;-68
2023/06/09 05:37:09;;;;;;;12.40;6.65;;;;;;;18.99;50.05;100917.69;7399511;19;20077;-68
2023/06/09 05:39:37;;;;;;;11.98;7.25;;;;;;;19.01;50.00;100921.09;7399122;19;20034;-67
2023/06/09 05:42:06;;;;;;;9.50;6.43;;;;;;;19.04;50.04;100920.06;7398723;19;20031;-68
2023/06/09 05:44:35;;;;;;;7.70;6.88;;;;;;;19.04;50.05;100920.06;7396242;19;20090;-67
2023/06/09 05:47:03;;;;;;;8.38;6.72;;;;;;;19.08;50.12;100928.75;7397415;19;20082;-68
2023/06/09 05:49:34;;;;;;;9.82;6.55;;;;;;;19.12;49.96;100928.50;7398967;19;20086;-67
2023/06/09 05:52:03;;;;;;;10.48;6.72;;;;;;;19.16;50.20;100934.50;7397385;19;20019;-68
2023/06/09 05:54:32;;;;;;;9.63;7.03;;;;;;;19.20;49.92;100933.41;7396639;19;20089;-68
2023/06/09 05:57:03;;;;;;;8.32;6.72;;;;;;;19.24;49.57;100942.91;7396201;19;20014;-66
2023/06/09 05:59:34;;;;;;;10.02;6.57;;;;;;;19.29;50.00;100943.50;7398672;19;20362;-66
2023/06/09 06:02:03;;;;;;;10.02;6.60;;;;;;;19.35;49.74;100939.66;7395712;19;20014;-66
2023/06/09 06:04:34;;;;;;;10.30;7.05;;;;;;;19.39;49.70;100951.00;7394848;19;20496;-67
2023/06/09 06:07:04;;;;;;;9.48;6.63;;;;;;;19.46;49.33;100944.38;7398476;19;20031;-67
2023/06/09 06:09:32;;;;;;;8.43;7.00;;;;;;;19.54;49.48;100950.13;7398049;19;20015;-67
2023/06/09 06:12:01;;;;;;;13.32;7.30;;;;;;;19.63;49.37;100949.59;7396741;19;20094;-66
2023/06/09 06:14:29;;;;;;;9.15;7.32;;;;;;;19.74;49.25;100953.47;7395448;19;20474;-67
2023/06/09 06:16:58;;;;;;;8.95;6.88;;;;;;;19.84;48.83;100944.91;7396158;19;20082;-67
2023/06/09 06:19:26;;;;;;;10.82;6.80;;;;;;;19.94;49.09;100947.91;7398300;19;20082;-65
2023/06/09 06:21:57;;;;;;;11.60;6.00;;;;;;;20.03;48.65;100946.50;7397713;19;20033;-66
2023/06/09 06:24:26;;;;;;;16.10;6.72;;;;;;;20.11;48.50;100944.25;7395392;19;20082;-66
2023/06/09 06:26:54;;;;;;;11.00;5.78;;;;;;;20.18;48.15;100942.06;7395527;19;20015;-65
2023/06/09 06:29:23;;;;;;;8.82;5.88;;;;;;;20.22;47.67;100954.28;7395130;19;20074;-66
2023/06/09 06:31:51;;;;;;;10.35;6.43;;;;;;;20.27;47.66;100948.66;7396161;19;20023;-67
2023/06/09 06:34:19;;;;;;;12.82;6.38;;;;;;;20.34;47.55;100944.69;7395907;19;20534;-66
2023/06/09 06:36:48;;;;;;;9.60;5.55;;;;;;;20.38;46.83;100942.69;7397783;19;20082;-66
2023/06/09 06:39:20;;;;;;;7.28;5.50;;;;;;;20.43;46.65;100945.94;7395302;19;20082;-67
2023/06/09 06:41:48;;;;;;;8.75;5.70;;;;;;;20.48;46.38;100949.19;7395312;19;20014;-68
2023/06/09 06:44:17;;;;;;;6.20;5.03;;;;;;;20.51;45.49;100944.53;7395450;19;20074;-67
2023/06/09 06:46:46;;;;;;;8.23;5.15;;;;;;;20.56;45.23;100944.25;7396141;19;20343;-67
2023/06/09 06:49:14;;;;;;;8.05;4.68;;;;;;;20.62;44.41;100949.19;7396862;19;20363;-67
2023/06/09 06:51:43;;;;;;;6.32;4.28;;;;;;;20.67;44.03;100938.25;7394316;19;20015;-67
2023/06/09 06:54:11;;;;;;;8.15;4.45;;;;;;;20.75;43.35;100943.16;7395092;19;20432;-66
2023/06/09 06:56:42;;;;;;;7.75;4.53;;;;;;;20.80;42.41;100946.38;7396955;19;20086;-66
2023/06/09 06:59:11;;;;;;;5.53;4.47;;;;;;;20.87;42.04;100947.72;7395131;19;20091;-67
2023/06/09 07:01:40;;;;;;;6.57;3.90;;;;;;;20.97;41.74;100942.69;7396553;19;20428;-66
2023/06/09 07:04:08;;;;;;;6.57;4.07;;;;;;;21.08;41.16;100939.34;7395365;19;20026;-69
2023/06/09 07:06:44;;;;;;;5.55;3.95;;;;;;;21.20;40.26;100943.06;7392909;19;20547;-69
2023/06/09 07:09:19;;;;;;;6.00;4.07;;;;;;;21.26;40.11;100940.84;7396447;19;20046;-69
2023/06/09 07:11:50;;;;;;;5.05;4.00;;;;;;;21.37;39.15;100947.28;7395863;19;20205;-69
2023/06/09 07:14:18;;;;;;;5.15;3.78;;;;;;;21.46;39.65;100949.41;7393500;19;20090;-69
2023/06/09 07:16:47;;;;;;;5.22;3.83;;;;;;;21.56;39.31;100947.88;7395943;19;20089;-70
2023/06/09 07:19:15;;;;;;;7.20;3.95;;;;;;;21.65;38.54;100943.75;7394873;19;20070;-68
2023/06/09 07:21:44;;;;;;;7.25;4.05;;;;;;;21.78;38.03;100949.13;7395599;19;20414;-69
2023/06/09 07:24:13;;;;;;;4.70;4.22;;;;;;;21.87;37.52;100951.19;7394877;19;20018;-70
2023/06/09 07:26:42;;;;;;;6.78;4.07;;;;;;;21.95;37.76;100948.88;7394101;19;20082;-68
2023/06/09 07:29:13;;;;;;;4.43;3.90;;;;;;;22.05;37.01;100956.28;7395717;19;20377;-69
2023/06/09 07:31:42;;;;;;;8.68;3.70;;;;;;;22.15;36.50;100945.81;7397129;19;20074;-69
2023/06/09 07:34:10;;;;;;;5.05;3.60;;;;;;;22.23;36.54;100956.84;7394372;19;20202;-69
2023/06/09 07:36:40;;;;;;;6.43;4.57;;;;;;;22.30;36.50;100950.13;7393814;19;20510;-68
2023/06/09 07:39:09;;;;;;;5.70;3.75;;;;;;;22.39;36.34;100949.53;7395583;19;20019;-69
2023/06/09 07:41:37;;;;;;;5.35;4.28;;;;;;;22.48;36.34;100948.03;7394114;19;20022;-68
2023/06/09 07:44:06;;;;;;;6.93;3.83;;;;;;;22.55;35.97;100949.31;7394742;19;20088;-69
2023/06/09 07:46:37;;;;;;;5.75;4.38;;;;;;;22.64;35.25;100941.66;7395720;19;20098;-68
2023/06/09 07:49:06;;;;;;;6.45;4.25;;;;;;;22.70;35.63;100946.56;7395614;19;20073;-68
2023/06/09 07:51:37;;;;;;;5.03;3.75;;;;;;;22.78;35.03;100952.22;7393000;19;20077;-68
2023/06/09 07:54:06;;;;;;;6.85;4.13;;;;;;;22.85;34.34;100945.47;7393413;19;20018;-69
2023/06/09 07:56:36;;;;;;;5.85;3.70;;;;;;;22.91;34.01;100953.06;7394357;19;20007;-68
2023/06/09 07:59:05;;;;;;;5.88;3.22;;;;;;;22.99;33.99;100944.50;7394727;19;20492;-68
2023/06/09 08:01:33;;;;;;;4.57;3.42;;;;;;;23.06;33.42;100942.25;7395124;19;20014;-68
2023/06/09 08:04:05;;;;;;;5.07;3.50;;;;;;;23.13;33.34;100940.84;7393597;19;20545;-69
2023/06/09 08:06:34;;;;;;;9.07;4.25;;;;;;;23.20;32.86;100950.19;7394980;19;20031;-68
2023/06/09 08:09:02;;;;;;;5.82;3.80;;;;;;;23.27;32.37;100940.72;7394844;19;20124;-68
2023/06/09 08:11:31;;;;;;;4.90;3.75;;;;;;;23.33;31.96;100947.47;7394256;19;20438;-68
2023/06/09 08:13:59;;;;;;;7.25;3.67;;;;;;;23.40;31.56;100946.06;7392904;19;20074;-69
2023/06/09 08:16:28;;;;;;;4.72;3.58;;;;;;;23.45;31.26;100945.72;7392512;19;20418;-69
2023/06/09 08:18:56;;;;;;;5.22;3.15;;;;;;;23.49;30.44;100949.03;7395912;19;20081;-69
2023/06/09 08:21:27;;;;;;;5.15;2.83;;;;;;;23.53;30.33;100946.00;7399115;19;20104;-69
2023/06/09 08:23:56;;;;;;;5.65;3.10;;;;;;;23.61;30.81;100942.78;7398623;19;20018;-69
2023/06/09 08:26:24;;;;;;;6.35;3.95;;;;;;;23.68;29.57;100938.69;7401007;19;20077;-68
2023/06/09 08:28:53;;;;;;;5.32;3.70;;;;;;;23.77;30.24;100950.53;7397418;19;20015;-68
2023/06/09 08:31:24;;;;;;;4.57;2.85;;;;;;;23.85;29.67;100948.13;7401168;19;20023;-69
2023/06/09 08:33:53;;;;;;;3.50;2.65;;;;;;;23.93;28.19;100936.00;7399676;19;20022;-69
2023/06/09 08:36:22;;;;;;;3.72;3.22;;;;;;;24.00;28.99;100937.25;7400722;19;20025;-69
2023/06/09 08:38:53;;;;;;;5.13;2.85;;;;;;;24.08;29.03;100935.69;7402156;19;20046;-68
2023/06/09 08:41:24;;;;;;;4.43;3.22;;;;;;;24.16;28.61;100937.81;7401831;19;20031;-69
2023/06/09 08:43:53;;;;;;;4.32;3.17;;;;;;;24.24;28.39;100934.53;7400123;19;20029;-70
2023/06/09 08:46:23;;;;;;;4.43;3.15;;;;;;;24.30;28.11;100926.03;7401140;19;20510;-68
2023/06/09 08:48:53;;;;;;;4.13;2.80;;;;;;;24.39;28.68;100937.84;7399340;19;20179;-70
2023/06/09 08:51:22;;;;;;;5.72;3.50;;;;;;;24.48;28.30;100933.59;7401191;19;20022;-70
2023/06/09 08:53:55;;;;;;;3.78;2.90;;;;;;;24.56;27.26;100933.88;7398019;19;20014;-69
2023/06/09 08:56:24;;;;;;;4.63;2.95;;;;;;;24.60;28.27;100929.13;7401329;19;20022;-69
2023/06/09 08:58:54;;;;;;;8.02;2.90;;;;;;;24.67;28.00;100931.22;7400933;19;20011;-69
2023/06/09 09:01:23;;;;;;;5.40;3.03;;;;;;;24.73;27.90;100932.56;7400840;19;20034;-70
2023/06/09 09:03:51;;;;;;;4.65;2.88;;;;;;;24.79;28.15;100932.06;7398775;19;20500;-70
2023/06/09 09:06:20;;;;;;;4.45;2.75;;;;;;;24.87;28.31;100936.84;7397541;19;20070;-70
2023/06/09 09:08:48;;;;;;;4.88;2.92;;;;;;;24.93;28.13;100930.13;7398272;19;20436;-69
2023/06/09 09:11:20;;;;;;;5.50;3.67;;;;;;;24.98;27.65;100920.72;7400562;19;20077;-70
2023/06/09 09:13:50;;;;;;;8.48;3.13;;;;;;;25.04;27.73;100932.81;7397108;19;20066;-70
2023/06/09 09:16:19;;;;;;;4.80;2.97;;;;;;;25.12;27.61;100926.81;7398030;19;20044;-69
2023/06/09 09:18:48;;;;;;;5.47;2.97;;;;;;;25.19;27.22;100928.06;7400647;19;20014;-70
2023/06/09 09:21:24;;;;;;;4.50;2.72;;;;;;;25.21;27.05;100924.25;7399811;19;20018;-70
2023/06/09 09:24:04;;;;;;;4.40;3.00;;;;;;;25.27;27.06;100932.78;7397462;19;20078;-69
2023/06/09 09:26:35;;;;;;;5.72;3.30;;;;;;;25.32;27.22;100919.84;7399901;19;20039;-69
2023/06/09 09:29:07;;;;;;;3.83;2.60;;;;;;;25.41;26.90;100926.34;7398063;19;20031;-69
2023/06/09 09:31:38;;;;;;;3.78;3.10;;;;;;;25.46;27.42;100916.06;7396739;19;20371;-69
2023/06/09 09:34:07;;;;;;;5.72;2.97;;;;;;;25.55;27.40;100928.72;7398417;19;20011;-72
2023/06/09 09:36:37;;;;;;;6.30;3.35;;;;;;;25.64;27.40;100919.06;7397073;19;20412;-69
2023/06/09 09:39:06;;;;;;;4.32;2.90;;;;;;;25.74;27.26;100922.66;7400462;19;20015;-69
2023/06/09 09:41:37;;;;;;;6.18;3.20;;;;;;;25.82;26.72;100922.91;7397052;19;20041;-69
2023/06/09 09:44:06;;;;;;;8.48;3.17;;;;;;;25.90;26.99;100916.03;7398250;19;20022;-69
2023/06/09 09:46:39;;;;;;;7.72;3.08;;;;;;;25.96;27.18;100919.06;7399896;19;20014;-69
2023/06/09 09:49:08;;;;;;;5.97;3.10;;;;;;;26.06;27.48;100923.66;7397543;19;20050;-68
2023/06/09 09:51:37;;;;;;;5.40;3.50;;;;;;;26.13;27.08;100925.69;7397505;19;20090;-70
2023/06/09 09:54:06;;;;;;;4.40;2.78;;;;;;;26.23;27.16;100922.25;7397202;19;20017;-69
2023/06/09 09:56:37;;;;;;;4.60;3.30;;;;;;;26.32;27.22;100924.13;7399657;19;20015;-69
2023/06/09 09:59:06;;;;;;;4.22;3.83;;;;;;;26.41;26.63;100923.38;7399414;19;20006;-69
2023/06/09 10:01:35;;;;;;;5.40;3.20;;;;;;;26.47;26.84;100921.97;7396339;19;20020;-70
2023/06/09 10:04:05;;;;;;;5.50;3.10;;;;;;;26.50;26.97;100911.81;7396199;19;20082;-68
2023/06/09 10:06:38;;;;;;;6.72;3.53;;;;;;;26.50;26.52;100909.13;7398048;19;20014;-69
2023/06/09 10:09:07;;;;;;;7.17;3.10;;;;;;;26.56;26.97;100910.41;7395806;19;20070;-70
2023/06/09 10:11:40;;;;;;;5.68;3.47;;;;;;;26.63;26.58;100911.56;7397830;19;20050;-68
2023/06/09 10:14:08;;;;;;;6.88;4.00;;;;;;;26.69;26.84;100906.63;7395370;19;20477;-69
2023/06/09 10:16:37;;;;;;;5.05;3.50;;;;;;;26.76;26.62;100903.31;7397754;19;20029;-70
2023/06/09 10:19:07;;;;;;;5.38;3.80;;;;;;;26.81;26.60;100902.91;7397404;19;20189;-70
2023/06/09 10:21:37;;;;;;;5.07;3.60;;;;;;;26.93;26.72;100906.34;7395017;19;20086;-69
2023/06/09 10:24:07;;;;;;;4.05;3.15;;;;;;;27.04;26.00;100902.72;7395891;19;20038;-70
2023/06/09 10:26:40;;;;;;;5.95;3.03;;;;;;;27.11;26.20;100895.78;7395083;19;20062;-70
2023/06/09 10:29:10;;;;;;;6.93;3.80;;;;;;;27.20;26.15;100899.50;7396766;19;20074;-70
2023/06/09 10:31:42;;;;;;;6.70;3.95;;;;;;;27.29;25.99;100898.66;7396273;19;20370;-69
2023/06/09 10:34:12;;;;;;;4.45;3.65;;;;;;;27.39;25.87;100895.97;7395988;19;20023;-68
2023/06/09 10:36:41;;;;;;;4.72;3.72;;;;;;;27.45;25.69;100890.91;7397528;19;20090;-70
2023/06/09 10:39:19;;;;;;;7.85;3.70;;;;;;;27.47;25.54;100888.94;7396811;19;20085;-69
2023/06/09 10:41:58;;;;;;;3.97;3.47;;;;;;;27.48;25.73;100890.63;7393077;19;20414;-68
2023/06/09 10:44:36;;;;;;;6.55;3.80;;;;;;;27.56;25.53;100878.28;7394894;19;20078;-70
2023/06/09 10:47:05;;;;;;;4.97;3.33;;;;;;;27.67;25.47;100882.72;7395547;19;20023;-69
2023/06/09 10:49:39;;;;;;;4.53;3.35;;;;;;;27.74;25.34;100884.69;7395678;19;20022;-70
2023/06/09 10:52:10;;;;;;;3.80;3.10;;;;;;;27.82;25.53;100877.75;7397761;19;20051;-69
2023/06/09 10:54:38;;;;;;;6.75;4.10;;;;;;;27.88;25.27;100875.31;7395055;19;20033;-69
2023/06/09 10:57:47;;;;;;;4.47;3.40;;;;;;;27.91;25.52;100877.72;7397032;19;20011;-68
2023/06/09 11:00:17;;;;;;;5.95;3.63;;;;;;;28.01;25.37;100874.16;7394568;19;20015;-70
2023/06/09 11:02:48;;;;;;;6.75;3.80;;;;;;;28.10;25.20;100865.22;7396559;19;20018;-70
2023/06/09 11:05:18;;;;;;;6.10;4.82;;;;;;;28.15;25.08;100859.41;7396505;19;20074;-70
2023/06/09 11:07:49;;;;;;;4.75;3.42;;;;;;;28.16;25.01;100869.19;7395321;19;20026;-69
2023/06/09 11:10:29;;;;;;;4.07;3.70;;;;;;;28.16;24.63;100869.19;7394474;19;20022;-68
2023/06/09 11:13:00;;;;;;;3.47;3.08;;;;;;;28.16;24.53;100872.75;7394830;19;20440;-70
2023/06/09 11:16:05;;;;;;;3.92;3.22;;;;;;;28.15;24.64;100862.94;7393435;19;20007;-69
2023/06/09 11:18:34;;;;;;;4.85;3.78;;;;;;;28.21;24.72;100859.66;7394319;19;20406;-69
2023/06/09 11:21:20;;;;;;;5.10;3.63;;;;;;;28.31;23.93;100854.25;7394025;19;20030;-71
2023/06/09 11:24:05;;;;;;;4.45;4.05;;;;;;;28.43;23.94;100855.78;7393337;19;20042;-69
2023/06/09 11:26:37;;;;;;;7.85;3.65;;;;;;;28.51;24.59;100846.06;7395589;19;20018;-73
2023/06/09 11:29:19;;;;;;;6.90;3.63;;;;;;;28.67;24.39;100853.59;7395232;19;20086;-70
2023/06/09 11:31:52;;;;;;;7.03;4.00;;;;;;;28.80;24.12;100855.94;7396409;19;20019;-69
2023/06/09 11:34:58;;;;;;;6.68;3.95;;;;;;;28.89;24.01;100839.69;7394507;19;20054;-70
2023/06/09 11:37:27;;;;;;;4.70;3.95;;;;;;;29.05;24.10;100835.47;7395717;19;20015;-69
2023/06/09 11:39:56;;;;;;;5.85;3.80;;;;;;;29.22;23.84;100834.63;7393082;19;20500;-69